Aviation Digital Data Service (ADDS)

Output produced by METARs form (0056 UTC 22 September 2017)
found at http://www.aviationweather.gov/adds/metars/
 
VLLB 220000Z 06002KT 2000 BR SCT006 BKN070 26/25 Q1010 NOSIG
TAF VLLB 212300Z 2200/2224 34004KT 9999 SCT020 SCT050 
     TEMPO 2200/2203 3000 BR SCT006 OVC070
       
VLPS 220000Z 18002KT 9999 RA SCT013 SCT050 SCT200 24/23 Q1008 NOSIG
TAF VLPS 212300Z 2200/2224 18004KT 9999 SCT017 FEW050 SCT200
       
VLSK 220000Z 09002KT 3000 BR SCT033 BKN100 25/24 Q1010 NOSIG
TAF VLSK 212300Z 2200/2224 09004KT 7000 SCT020 SCT100 
     TEMPO 2213/2219 3000 BR SCT020 SCT100
       
VLVT 220030Z 24002KT 8000 FEW020 SCT050 25/24 Q1009 NOSIG
TAF VLVT 212300Z 2200/2224 30004KT 9999 SCT020 FEW050 FEW200 
     TEMPO 2214/2220 4000 BR FEW050 FEW200
       
VLLB 220000Z 06002KT 2000 BR SCT006 BKN070 26/25 Q1010 NOSIG
TAF VLLB 212300Z 2200/2224 34004KT 9999 SCT020 SCT050 
     TEMPO 2200/2203 3000 BR SCT006 OVC070
       
VLLN 220000Z 32002KT 2000 BR SCT010 BKN100 22/22 Q1011 NOSIG
TAF VLLN 212300Z 2200/2224 32004KT 8000 SCT020 BKN100 
     TEMPO 2200/2203 3000 BR SCT010 OVC090
       
VLPS 220000Z 18002KT 9999 RA SCT013 SCT050 SCT200 24/23 Q1008 NOSIG
TAF VLPS 212300Z 2200/2224 18004KT 9999 SCT017 FEW050 SCT200
       
VLSK 220000Z 09002KT 3000 BR SCT033 BKN100 25/24 Q1010 NOSIG
TAF VLSK 212300Z 2200/2224 09004KT 7000 SCT020 SCT100 
     TEMPO 2213/2219 3000 BR SCT020 SCT100
       
VLVT 220030Z 24002KT 8000 FEW020 SCT050 25/24 Q1009 NOSIG
TAF VLVT 212300Z 2200/2224 30004KT 9999 SCT020 FEW050 FEW200 
     TEMPO 2214/2220 4000 BR FEW050 FEW200